createdAt,value
2019-02-07T00:00:53.641Z,13.13
2019-02-07T00:03:22.249Z,12.20
2019-02-07T00:06:10.036Z,10.43
2019-02-07T00:08:38.558Z,12.70
2019-02-07T00:11:07.150Z,11.27
2019-02-07T00:13:35.804Z,11.83
2019-02-07T00:16:04.380Z,12.07
2019-02-07T00:18:32.989Z,11.83
2019-02-07T00:21:01.803Z,12.17
2019-02-07T00:23:30.402Z,11.10
2019-02-07T00:25:58.910Z,10.43
2019-02-07T00:28:27.541Z,12.37
2019-02-07T00:30:56.195Z,11.00
2019-02-07T00:33:24.741Z,11.43
2019-02-07T00:35:54.370Z,11.17
2019-02-07T00:38:22.855Z,10.30
2019-02-07T00:40:51.289Z,10.90
2019-02-07T00:43:19.729Z,11.20
2019-02-07T00:45:48.257Z,10.53
2019-02-07T00:48:36.131Z,11.63
2019-02-07T00:51:04.811Z,10.87
2019-02-07T00:53:33.258Z,10.70
2019-02-07T00:56:01.703Z,11.60
2019-02-07T00:58:30.218Z,10.43
2019-02-07T01:00:58.942Z,10.90
2019-02-07T01:03:27.730Z,11.33
2019-02-07T01:05:56.256Z,11.10
2019-02-07T01:08:24.835Z,11.30
2019-02-07T01:10:54.272Z,10.67
2019-02-07T01:13:22.771Z,10.70
2019-02-07T01:15:51.298Z,11.87
2019-02-07T01:18:20.207Z,12.37
2019-02-07T01:20:48.852Z,10.10
2019-02-07T01:23:17.359Z,11.40
2019-02-07T01:25:45.896Z,12.53
2019-02-07T01:28:14.403Z,11.53
2019-02-07T01:30:42.857Z,12.50
2019-02-07T01:33:11.309Z,11.90
2019-02-07T01:35:41.876Z,11.83
2019-02-07T01:38:10.498Z,11.43
2019-02-07T01:40:39.117Z,11.43
2019-02-07T01:43:07.699Z,11.97
2019-02-07T01:45:37.267Z,12.13
2019-02-07T01:48:05.715Z,10.83
2019-02-07T01:50:34.530Z,12.53
2019-02-07T01:53:03.055Z,11.97
2019-02-07T01:55:31.487Z,13.00
2019-02-07T01:57:59.947Z,12.83
2019-02-07T02:00:28.464Z,11.50
2019-02-07T02:02:56.914Z,11.73
2019-02-07T02:05:25.632Z,12.40
2019-02-07T02:07:54.083Z,13.30
2019-02-07T02:10:28.340Z,13.00
2019-02-07T02:12:56.939Z,13.27
2019-02-07T02:15:25.976Z,12.30
2019-02-07T02:17:54.510Z,12.73
2019-02-07T02:20:25.330Z,13.83
2019-02-07T02:22:59.597Z,12.77
2019-02-07T02:25:28.101Z,13.83
2019-02-07T02:27:56.552Z,12.90
2019-02-07T02:30:30.214Z,14.10
2019-02-07T02:33:18.016Z,13.57
2019-02-07T02:35:46.527Z,11.97
2019-02-07T02:38:14.975Z,14.73
2019-02-07T02:41:02.844Z,13.77
2019-02-07T02:43:31.302Z,13.93
2019-02-07T02:45:59.885Z,15.33
2019-02-07T02:48:28.739Z,14.93
2019-02-07T02:50:57.199Z,14.83
2019-02-07T02:53:25.631Z,14.77
2019-02-07T02:55:54.278Z,14.23
2019-02-07T02:58:22.988Z,15.30
2019-02-07T03:00:53.149Z,15.10
2019-02-07T03:03:26.079Z,13.10
2019-02-07T03:06:12.581Z,14.00
2019-02-07T03:11:51.085Z,14.40
2019-02-07T03:14:49.473Z,14.33
2019-02-07T03:17:22.522Z,14.77
2019-02-07T03:19:52.624Z,12.97
2019-02-07T03:22:34.952Z,14.07
2019-02-07T03:25:14.799Z,13.83
2019-02-07T03:27:53.899Z,14.43
2019-02-07T03:30:35.931Z,12.87
2019-02-07T03:33:09.124Z,14.43
2019-02-07T03:35:39.281Z,13.27
2019-02-07T03:38:18.598Z,13.90
2019-02-07T03:40:55.249Z,12.80
2019-02-07T03:43:25.360Z,13.03
2019-02-07T03:46:02.989Z,13.30
2019-02-07T03:48:39.141Z,13.07
2019-02-07T03:51:21.831Z,12.67
2019-02-07T03:54:04.983Z,13.60
2019-02-07T03:56:38.135Z,13.23
2019-02-07T03:59:24.596Z,12.63
2019-02-07T04:02:12.965Z,11.77
2019-02-07T04:04:58.938Z,12.90
2019-02-07T04:07:37.943Z,13.07
2019-02-07T04:10:09.446Z,12.50
2019-02-07T04:12:39.610Z,12.53
2019-02-07T04:15:19.076Z,14.13
2019-02-07T04:17:49.240Z,12.90
2019-02-07T04:20:25.190Z,13.90
2019-02-07T04:23:00.808Z,12.70
2019-02-07T04:25:34.336Z,13.23
2019-02-07T04:28:07.781Z,12.97
2019-02-07T04:31:01.000Z,11.73
2019-02-07T04:33:36.967Z,12.60
2019-02-07T04:36:31.972Z,13.07
2019-02-07T04:39:08.052Z,13.17
2019-02-07T04:41:38.517Z,12.30
2019-02-07T04:44:24.992Z,12.17
2019-02-07T04:46:55.115Z,13.27
2019-02-07T04:49:43.313Z,12.97
2019-02-07T04:52:31.938Z,13.40
2019-02-07T04:55:14.346Z,13.43
2019-02-07T04:57:57.564Z,12.43
2019-02-07T05:00:30.795Z,11.60
2019-02-07T05:03:16.663Z,12.33
2019-02-07T05:05:56.091Z,13.50
2019-02-07T05:11:21.394Z,13.00
2019-02-07T05:13:57.361Z,12.90
2019-02-07T05:16:44.112Z,11.87
2019-02-07T05:19:36.467Z,12.20
2019-02-07T05:22:09.436Z,11.63
2019-02-07T05:24:59.847Z,11.93
2019-02-07T05:27:30.016Z,12.53
2019-02-07T05:30:06.128Z,12.27
2019-02-07T05:32:38.751Z,12.03
2019-02-07T05:35:14.739Z,11.20
2019-02-07T05:37:56.833Z,10.57
2019-02-07T05:40:42.302Z,11.80
2019-02-07T05:43:18.329Z,11.97
2019-02-07T05:46:06.231Z,11.33
2019-02-07T05:49:07.773Z,11.13
2019-02-07T05:51:37.847Z,10.73
2019-02-07T05:54:08.020Z,10.63
2019-02-07T05:56:47.249Z,11.00
2019-02-07T05:59:29.308Z,10.80
2019-02-07T06:01:59.391Z,36.13
2019-02-07T06:04:38.379Z,9.53
2019-02-07T06:07:08.457Z,9.90
2019-02-07T06:09:38.572Z,10.30
2019-02-07T06:15:16.860Z,9.43
2019-02-07T06:17:46.942Z,11.00
2019-02-07T06:20:19.844Z,10.20
2019-02-07T06:22:49.954Z,9.80
2019-02-07T06:25:20.107Z,9.70
2019-02-07T06:27:59.254Z,10.60
2019-02-07T06:30:32.350Z,8.97
2019-02-07T06:33:12.195Z,9.97
2019-02-07T06:35:54.600Z,9.00
2019-02-07T06:38:41.082Z,8.60
2019-02-07T06:41:11.217Z,8.80
2019-02-07T06:43:47.279Z,9.33
2019-02-07T06:46:23.029Z,9.80
2019-02-07T06:48:53.100Z,9.10
2019-02-07T06:51:45.969Z,9.43
2019-02-07T06:54:16.122Z,9.40
2019-02-07T06:57:02.520Z,9.60
2019-02-07T06:59:32.592Z,9.47
2019-02-07T07:02:19.014Z,10.77
2019-02-07T07:04:54.969Z,10.30
2019-02-07T07:07:41.401Z,10.00
2019-02-07T07:10:13.826Z,10.27
2019-02-07T07:12:43.980Z,9.20
2019-02-07T07:15:14.465Z,9.70
2019-02-07T07:17:48.852Z,9.00
2019-02-07T07:20:31.007Z,7.90
2019-02-07T07:23:17.772Z,10.10
2019-02-07T07:26:00.155Z,9.90
2019-02-07T07:28:33.248Z,10.53
2019-02-07T07:31:21.609Z,10.00
2019-02-07T07:34:00.537Z,9.40
2019-02-07T07:36:36.667Z,10.70
2019-02-07T07:39:09.376Z,11.43
2019-02-07T07:41:48.519Z,11.03
2019-02-07T07:44:24.900Z,10.43
2019-02-07T07:46:57.829Z,9.60
2019-02-07T07:49:39.873Z,10.70
2019-02-07T07:52:13.439Z,10.63
2019-02-07T07:54:55.611Z,9.57
2019-02-07T07:57:31.261Z,10.40
2019-02-07T08:00:19.083Z,10.00
2019-02-07T08:03:08.724Z,9.57
2019-02-07T08:05:41.287Z,9.13
2019-02-07T08:08:14.512Z,9.50
2019-02-07T08:10:56.368Z,8.70
2019-02-07T08:13:38.570Z,9.40
2019-02-07T08:16:24.163Z,8.57
2019-02-07T08:19:11.401Z,9.57
2019-02-07T08:21:44.218Z,8.70
2019-02-07T08:24:23.667Z,7.43
2019-02-07T08:26:59.647Z,7.40
2019-02-07T08:29:41.500Z,7.30
2019-02-07T08:32:14.554Z,7.00
2019-02-07T08:34:44.615Z,7.70
2019-02-07T08:37:20.460Z,6.13
2019-02-07T08:39:53.531Z,7.13
2019-02-07T08:42:35.999Z,6.80
2019-02-07T08:45:23.991Z,7.00
2019-02-07T08:47:59.720Z,6.20
2019-02-07T08:50:29.879Z,6.67
2019-02-07T08:53:06.526Z,5.97
2019-02-07T08:55:36.701Z,5.93
2019-02-07T08:58:06.935Z,6.70
2019-02-07T09:00:55.279Z,5.77
2019-02-07T09:03:37.674Z,4.77
2019-02-07T09:06:09.906Z,5.07
2019-02-07T09:08:47.108Z,3.77
2019-02-07T09:11:36.201Z,4.63
2019-02-07T09:14:20.927Z,4.17
2019-02-07T09:17:02.790Z,3.90
2019-02-07T09:19:33.018Z,4.27
2019-02-07T09:22:23.951Z,3.90
2019-02-07T09:25:03.326Z,2.90
2019-02-07T09:27:49.855Z,2.40
2019-02-07T09:30:33.523Z,2.87
2019-02-07T09:33:09.365Z,2.80
2019-02-07T09:35:43.238Z,2.23
2019-02-07T09:38:29.715Z,2.30
2019-02-07T09:41:16.603Z,1.97
2019-02-07T09:43:49.432Z,2.17
2019-02-07T09:46:35.856Z,1.93
2019-02-07T09:49:22.569Z,2.23
2019-02-07T09:51:52.636Z,2.80
2019-02-07T09:54:37.568Z,2.37
2019-02-07T09:57:07.643Z,2.93
2019-02-07T09:59:40.685Z,3.07
2019-02-07T10:02:29.292Z,3.27
2019-02-07T10:05:06.076Z,2.00
2019-02-07T10:07:51.324Z,2.70
2019-02-07T10:10:27.601Z,1.63
2019-02-07T10:13:15.819Z,2.20
2019-02-07T10:16:11.599Z,2.90
2019-02-07T10:18:41.681Z,2.87
2019-02-07T10:21:28.280Z,3.67
2019-02-07T10:23:58.422Z,2.63
2019-02-07T10:26:44.761Z,2.77
2019-02-07T10:29:31.107Z,3.00
2019-02-07T10:32:17.667Z,3.33
2019-02-07T10:34:47.751Z,3.70
2019-02-07T10:37:17.924Z,2.90
2019-02-07T10:39:51.174Z,2.10
2019-02-07T10:42:36.372Z,2.00
2019-02-07T10:45:15.409Z,3.30
2019-02-07T10:47:57.624Z,2.67
2019-02-07T10:50:30.259Z,3.10
2019-02-07T10:53:00.436Z,2.70
2019-02-07T10:55:47.123Z,2.40
2019-02-07T10:58:18.199Z,2.13
2019-02-07T11:00:48.405Z,2.23
2019-02-07T11:03:24.445Z,1.97
2019-02-07T11:05:57.243Z,2.73
2019-02-07T11:08:27.406Z,2.60
2019-02-07T11:11:02.787Z,2.77
2019-02-07T11:13:47.545Z,2.70
2019-02-07T11:16:23.640Z,3.43
2019-02-07T11:18:55.546Z,3.20
2019-02-07T11:21:41.934Z,3.30
2019-02-07T11:24:30.190Z,3.50
2019-02-07T11:27:16.844Z,3.33
2019-02-07T11:30:01.859Z,2.87
2019-02-07T11:32:31.942Z,3.40
2019-02-07T11:35:07.843Z,3.10
2019-02-07T11:37:37.991Z,3.33
2019-02-07T11:40:29.388Z,2.53
2019-02-07T11:43:16.021Z,3.80
2019-02-07T11:46:03.403Z,3.70
2019-02-07T11:48:36.195Z,3.17
2019-02-07T11:54:02.384Z,3.57
2019-02-07T11:56:38.880Z,4.23
2019-02-07T11:59:23.952Z,3.10
2019-02-07T12:01:55.333Z,2.33
2019-02-07T12:04:47.506Z,2.37
2019-02-07T12:07:23.900Z,3.57
2019-02-07T12:10:08.865Z,3.40
2019-02-07T12:12:47.683Z,3.47
2019-02-07T12:15:20.467Z,2.60
2019-02-07T12:17:50.640Z,2.83
2019-02-07T12:20:26.857Z,2.90
2019-02-07T12:23:13.699Z,2.40
2019-02-07T12:25:43.923Z,2.30
2019-02-07T12:28:17.044Z,2.57
2019-02-07T12:30:58.838Z,2.87
2019-02-07T12:33:40.929Z,3.07
2019-02-07T12:36:20.100Z,2.53
2019-02-07T12:38:50.272Z,3.10
2019-02-07T12:41:32.362Z,2.43
2019-02-07T12:44:05.310Z,2.83
2019-02-07T12:46:51.957Z,1.80
2019-02-07T12:49:37.523Z,2.90
2019-02-07T12:52:10.592Z,2.40
2019-02-07T12:54:55.871Z,2.70
2019-02-07T12:57:42.483Z,2.97
2019-02-07T13:00:15.665Z,2.40
2019-02-07T13:02:45.865Z,2.67
2019-02-07T13:05:29.468Z,2.30
2019-02-07T13:07:59.639Z,2.10
2019-02-07T13:10:41.617Z,2.00
2019-02-07T13:13:15.016Z,2.27
2019-02-07T13:15:53.927Z,2.90
2019-02-07T13:18:24.056Z,1.70
2019-02-07T13:21:02.773Z,2.00
2019-02-07T13:23:48.868Z,2.10
2019-02-07T13:26:38.364Z,1.77
2019-02-07T13:29:14.432Z,2.10
2019-02-07T13:31:47.380Z,2.77
2019-02-07T13:34:17.538Z,2.50
2019-02-07T13:36:59.752Z,2.57
2019-02-07T13:39:37.635Z,2.47
2019-02-07T13:42:08.439Z,2.63
2019-02-07T13:44:38.519Z,2.20
2019-02-07T13:47:20.424Z,1.93
2019-02-07T13:49:56.243Z,2.00
2019-02-07T13:52:26.343Z,1.60
2019-02-07T13:55:05.395Z,2.30
2019-02-07T13:57:39.500Z,2.03
2019-02-07T14:00:17.749Z,1.97
2019-02-07T14:03:04.080Z,2.23
2019-02-07T14:05:52.803Z,2.13
2019-02-07T14:08:38.380Z,2.03
2019-02-07T14:11:18.646Z,2.20
2019-02-07T14:14:05.249Z,1.97
2019-02-07T14:16:41.239Z,2.60
2019-02-07T14:19:11.602Z,1.90
2019-02-07T14:21:58.298Z,2.27
2019-02-07T14:24:28.738Z,2.20
2019-02-07T14:27:15.226Z,1.73
2019-02-07T14:29:54.429Z,1.87
2019-02-07T14:32:27.691Z,2.17
2019-02-07T14:34:57.792Z,1.70
2019-02-07T14:37:27.959Z,1.60
2019-02-07T14:39:58.063Z,2.00
2019-02-07T14:42:30.850Z,3.30
2019-02-07T14:45:01.501Z,2.17
2019-02-07T14:47:29.986Z,2.20
2019-02-07T14:49:58.446Z,2.03
2019-02-07T14:52:27.095Z,2.00
2019-02-07T14:54:57.519Z,2.10
2019-02-07T14:57:25.736Z,1.87
2019-02-07T14:59:54.320Z,1.60
2019-02-07T15:02:22.803Z,1.67
2019-02-07T15:04:51.239Z,1.80
2019-02-07T15:07:19.711Z,2.03
2019-02-07T15:09:48.368Z,2.17
2019-02-07T15:12:16.893Z,1.40
2019-02-07T15:14:45.330Z,1.97
2019-02-07T15:17:14.288Z,1.90
2019-02-07T15:19:42.731Z,1.63
2019-02-07T15:22:11.264Z,1.50
2019-02-07T15:24:39.782Z,1.60
2019-02-07T15:27:08.504Z,1.87
2019-02-07T15:29:37.024Z,2.50
2019-02-07T15:32:05.583Z,2.97
2019-02-07T15:34:34.184Z,1.30
2019-02-07T15:37:02.628Z,1.87
2019-02-07T15:39:31.208Z,2.40
2019-02-07T15:41:59.651Z,2.10
2019-02-07T15:44:28.248Z,1.77
2019-02-07T15:46:57.031Z,2.10
2019-02-07T15:49:25.954Z,2.40
2019-02-07T15:51:54.645Z,1.60
2019-02-07T15:54:23.562Z,1.53
2019-02-07T15:56:52.127Z,1.90
2019-02-07T15:59:22.215Z,2.27
2019-02-07T16:01:52.287Z,1.63
2019-02-07T16:04:22.762Z,1.50
2019-02-07T16:06:51.196Z,1.97
2019-02-07T16:09:19.751Z,1.83
2019-02-07T16:11:48.327Z,1.80
2019-02-07T16:14:17.015Z,1.70
2019-02-07T16:16:45.446Z,1.90
2019-02-07T16:19:14.064Z,2.10
2019-02-07T16:21:42.688Z,1.47
2019-02-07T16:24:11.506Z,1.43
2019-02-07T16:26:40.122Z,1.80
2019-02-07T16:29:08.788Z,1.30
2019-02-07T16:31:37.847Z,1.60
2019-02-07T16:34:07.106Z,1.77
2019-02-07T16:36:35.699Z,2.07
2019-02-07T16:39:07.458Z,2.33
2019-02-07T16:41:41.723Z,3.00
2019-02-07T16:44:10.300Z,2.83
2019-02-07T16:46:38.756Z,2.20
2019-02-07T16:49:07.712Z,3.37
2019-02-07T16:51:36.294Z,1.90
2019-02-07T16:54:05.301Z,3.30
2019-02-07T16:56:33.848Z,2.23
2019-02-07T16:59:02.451Z,2.83
2019-02-07T17:01:33.196Z,2.17
2019-02-07T17:04:02.233Z,2.03
2019-02-07T17:06:30.711Z,2.03
2019-02-07T17:08:59.150Z,1.80
2019-02-07T17:11:27.690Z,2.37
2019-02-07T17:13:56.196Z,2.27
2019-02-07T17:16:24.736Z,1.63
2019-02-07T17:18:53.177Z,2.30
2019-02-07T17:21:22.168Z,3.50
2019-02-07T17:23:50.730Z,2.30
2019-02-07T17:26:19.180Z,2.10
2019-02-07T17:28:50.368Z,2.83
2019-02-07T17:31:19.169Z,2.53
2019-02-07T17:33:47.684Z,2.47
2019-02-07T17:36:16.684Z,2.77
2019-02-07T17:38:45.204Z,1.80
2019-02-07T17:41:13.924Z,2.20
2019-02-07T17:43:48.307Z,1.80
2019-02-07T17:46:16.846Z,2.30
2019-02-07T17:48:45.484Z,3.27
2019-02-07T17:51:22.993Z,2.50
2019-02-07T17:53:44.467Z,2.23
2019-02-07T17:56:13.043Z,2.73
2019-02-07T17:58:41.564Z,1.80
2019-02-07T18:01:10.226Z,2.00
2019-02-07T18:03:44.554Z,2.10
2019-02-07T18:06:14.434Z,2.30
2019-02-07T18:08:43.031Z,1.70
2019-02-07T18:11:11.596Z,1.80
2019-02-07T18:13:40.049Z,2.00
2019-02-07T18:16:08.615Z,1.43
2019-02-07T18:18:37.099Z,2.20
2019-02-07T18:21:13.770Z,2.27
2019-02-07T18:23:42.295Z,1.73
2019-02-07T18:26:10.804Z,1.80
2019-02-07T18:28:39.255Z,1.80
2019-02-07T18:31:07.899Z,1.93
2019-02-07T18:33:36.623Z,1.80
2019-02-07T18:36:05.118Z,2.20
2019-02-07T18:38:33.635Z,1.70
2019-02-07T18:41:03.135Z,1.90
2019-02-07T18:43:31.661Z,2.20
2019-02-07T18:46:03.164Z,2.10
2019-02-07T18:48:31.675Z,1.93
2019-02-07T18:51:00.140Z,2.10
2019-02-07T18:53:33.462Z,1.83
2019-02-07T18:56:01.988Z,1.43
2019-02-07T18:58:30.504Z,1.70
2019-02-07T19:00:59.023Z,1.20
2019-02-07T19:03:27.543Z,1.50
2019-02-07T19:05:57.026Z,1.47
2019-02-07T19:08:25.845Z,2.37
2019-02-07T19:10:54.303Z,2.37
2019-02-07T19:13:22.767Z,1.67
2019-02-07T19:15:54.554Z,2.30
2019-02-07T19:18:23.146Z,1.87
2019-02-07T19:20:51.593Z,1.73
2019-02-07T19:23:20.398Z,1.87
2019-02-07T19:25:48.914Z,1.37
2019-02-07T19:28:17.507Z,1.30
2019-02-07T19:30:46.248Z,1.23
2019-02-07T19:33:14.678Z,1.57
2019-02-07T19:35:43.263Z,2.20
2019-02-07T19:38:11.795Z,1.80
2019-02-07T19:40:40.631Z,2.30
2019-02-07T19:43:09.073Z,2.50
2019-02-07T19:45:37.695Z,1.50
2019-02-07T19:48:06.263Z,1.70
2019-02-07T19:50:34.717Z,1.60
2019-02-07T19:53:03.434Z,1.90
2019-02-07T19:55:33.091Z,3.10
2019-02-07T19:58:01.599Z,1.80
2019-02-07T20:00:34.327Z,3.30
2019-02-07T20:03:02.999Z,1.87
2019-02-07T20:05:31.681Z,2.80
2019-02-07T20:08:00.504Z,2.43
2019-02-07T20:10:31.385Z,2.07
2019-02-07T20:13:00.186Z,2.40
2019-02-07T20:15:34.132Z,1.80
2019-02-07T20:18:03.243Z,1.93
2019-02-07T20:20:31.844Z,1.93
2019-02-07T20:23:00.452Z,1.77
2019-02-07T20:25:29.147Z,1.97
2019-02-07T20:27:58.224Z,1.80
2019-02-07T20:30:29.079Z,2.40
2019-02-07T20:32:58.181Z,1.83
2019-02-07T20:35:27.742Z,2.40
2019-02-07T20:37:56.497Z,1.73
2019-02-07T20:40:30.916Z,2.03
2019-02-07T20:42:59.903Z,1.47
2019-02-07T20:45:28.559Z,1.83
2019-02-07T20:47:57.090Z,2.33
2019-02-07T20:50:26.947Z,1.90
2019-02-07T20:52:55.827Z,1.40
2019-02-07T20:55:25.187Z,1.37
2019-02-07T20:57:55.179Z,1.47
2019-02-07T21:00:35.532Z,1.37
2019-02-07T21:03:04.990Z,1.77
2019-02-07T21:05:34.695Z,1.10
2019-02-07T21:08:03.385Z,1.77
2019-02-07T21:10:33.924Z,1.43
2019-02-07T21:13:02.574Z,1.50
2019-02-07T21:15:31.287Z,1.23
2019-02-07T21:17:59.875Z,1.03
2019-02-07T21:20:30.345Z,3.20
2019-02-07T21:23:00.203Z,1.70
2019-02-07T21:25:40.357Z,1.20
2019-02-07T21:28:09.222Z,1.33
2019-02-07T21:30:38.655Z,1.70
2019-02-07T21:33:07.227Z,1.00
2019-02-07T21:35:36.102Z,1.30
2019-02-07T21:38:23.956Z,1.23
2019-02-07T21:40:52.796Z,1.30
2019-02-07T21:43:21.314Z,2.03
2019-02-07T21:45:49.851Z,2.00
2019-02-07T21:48:18.279Z,1.30
2019-02-07T21:50:46.715Z,1.67
2019-02-07T21:53:15.455Z,1.87
2019-02-07T21:55:43.960Z,1.70
2019-02-07T21:58:12.884Z,1.47
2019-02-07T22:00:46.015Z,1.37
2019-02-07T22:03:15.085Z,1.37
2019-02-07T22:05:44.043Z,1.80
2019-02-07T22:08:12.930Z,1.40
2019-02-07T22:10:41.372Z,1.47
2019-02-07T22:13:10.365Z,1.47
2019-02-07T22:15:38.992Z,1.30
2019-02-07T22:18:08.064Z,1.60
2019-02-07T22:20:37.802Z,2.23
2019-02-07T22:23:06.349Z,1.70
2019-02-07T22:25:34.775Z,1.60
2019-02-07T22:28:03.635Z,1.43
2019-02-07T22:30:37.259Z,1.40
2019-02-07T22:33:07.375Z,1.23
2019-02-07T22:35:35.891Z,1.67
2019-02-07T22:38:13.413Z,1.30
2019-02-07T22:40:41.914Z,1.27
2019-02-07T22:43:10.534Z,0.90
2019-02-07T22:45:39.041Z,1.80
2019-02-07T22:48:07.623Z,1.90
2019-02-07T22:50:36.308Z,1.80
2019-02-07T22:53:05.698Z,1.73
2019-02-07T22:55:34.271Z,1.47
2019-02-07T22:58:03.315Z,1.57
2019-02-07T23:00:38.987Z,1.00
2019-02-07T23:03:19.977Z,1.17
2019-02-07T23:06:07.871Z,1.00
2019-02-07T23:08:36.391Z,1.30
2019-02-07T23:11:06.367Z,1.47
2019-02-07T23:13:34.821Z,1.73
2019-02-07T23:16:04.515Z,1.60
2019-02-07T23:18:32.960Z,1.17
2019-02-07T23:21:02.075Z,1.77
2019-02-07T23:23:30.660Z,1.53
2019-02-07T23:25:59.102Z,2.20
2019-02-07T23:28:27.583Z,1.50
2019-02-07T23:30:56.040Z,1.40
2019-02-07T23:33:24.471Z,1.57
2019-02-07T23:35:53.051Z,1.77
2019-02-07T23:38:21.673Z,1.50
2019-02-07T23:40:50.202Z,2.33
2019-02-07T23:43:18.875Z,1.60
2019-02-07T23:45:47.472Z,1.97
2019-02-07T23:48:15.987Z,1.33
2019-02-07T23:50:44.671Z,1.60
2019-02-07T23:53:14.991Z,1.63
2019-02-07T23:55:43.963Z,1.50
2019-02-07T23:58:12.488Z,1.60
